.
WxDataArchive / Data Records for 2006-01-05
2006-01-04 January 2006 2006-01-06

Data Records for Thursday, 05 January 2006

Time	Temp	Chill	HIndex	Humid	Dewpt	 Wind 	HiWind	WindDir	Rain 	Barom 
-----	----	-----	------	-----	-----	------	------	-------	-----	----- 
00:00	37.3	34.2	37.3	84	32.9	4	11	270	0.00	29.788 
00:05	37.3	37.3	37.3	84	32.9	3	6	270	0.00	29.788 
00:10	37.2	37.2	37.2	83	32.5	3	6	270	0.00	29.788 
00:15	37.2	37.2	37.2	83	32.5	3	7	270	0.00	29.783 
00:20	37.2	37.2	37.2	83	32.5	2	5	270	0.00	29.783 
00:25	37.2	37.2	37.2	83	32.5	2	6	270	0.00	29.783 
00:30	37.2	37.2	37.2	82	32.2	3	9	292	0.00	29.782 
00:35	37.3	37.3	37.3	82	32.3	3	8	270	0.00	29.782 
00:40	37.3	37.3	37.3	82	32.3	3	5	270	0.00	29.782 
00:45	37.3	37.3	37.3	82	32.3	3	11	270	0.00	29.782 
00:50	37.3	37.3	37.3	82	32.3	2	10	270	0.00	29.782 
00:55	37.3	37.3	37.3	82	32.3	2	10	270	0.00	29.782 
01:00	37.3	37.3	37.3	83	32.6	3	6	270	0.00	29.788 
01:05	37.3	37.3	37.3	83	32.6	2	7	270	0.00	29.788 
01:10	37.3	34.2	37.3	82	32.3	4	11	270	0.00	29.788 
01:15	37.3	34.2	37.3	83	32.6	4	8	270	0.00	29.788 
01:20	37.3	33.3	37.3	82	32.3	5	12	270	0.00	29.788 
01:25	37.3	34.2	37.3	82	32.3	4	9	270	0.00	29.788 
01:30	37.3	37.3	37.3	82	32.3	3	7	270	0.00	29.789 
01:35	37.3	34.2	37.3	82	32.3	4	7	270	0.00	29.789 
01:40	37.3	37.3	37.3	82	32.3	3	7	270	0.00	29.789 
01:45	37.3	34.2	37.3	82	32.3	4	11	270	0.00	29.790 
01:50	37.3	37.3	37.3	82	32.3	3	11	270	0.00	29.790 
01:55	37.5	33.5	37.5	82	32.5	5	15	270	0.00	29.790 
02:00	37.5	34.4	37.5	81	32.2	4	11	270	0.00	29.793 
02:05	37.5	34.4	37.5	81	32.2	4	11	270	0.00	29.793 
02:10	37.5	37.5	37.5	81	32.2	3	9	270	0.00	29.793 
02:15	37.5	37.5	37.5	81	32.2	3	6	270	0.00	29.799 
02:20	37.5	37.5	37.5	81	32.2	3	9	270	0.00	29.799 
02:25	37.5	37.5	37.5	81	32.2	3	7	270	0.00	29.799 
02:30	37.6	34.5	37.6	81	32.3	4	9	270	0.00	29.807 
02:35	37.5	34.4	37.5	81	32.2	4	7	270	0.00	29.807 
02:40	37.5	37.5	37.5	81	32.2	3	7	270	0.00	29.807 
02:45	37.3	37.3	37.3	82	32.3	3	7	270	0.00	29.814 
02:50	37.2	37.2	37.2	83	32.5	3	6	270	0.00	29.814 
02:55	37.2	37.2	37.2	84	32.8	3	7	270	0.00	29.814 
03:00	37.0	37.0	37.0	84	32.6	2	5	270	0.00	29.816 
03:05	37.0	37.0	37.0	84	32.6	2	5	270	0.00	29.816 
03:10	36.9	36.9	36.9	84	32.5	3	6	270	0.00	29.816 
03:15	37.0	37.0	37.0	83	32.3	3	6	270	0.00	29.814 
03:20	37.0	37.0	37.0	83	32.3	2	5	270	0.00	29.814 
03:25	37.0	37.0	37.0	83	32.3	3	7	248	0.00	29.814 
03:30	37.0	37.0	37.0	83	32.3	2	4	270	0.00	29.813 
03:35	37.0	37.0	37.0	83	32.3	2	6	248	0.00	29.813 
03:40	37.0	37.0	37.0	83	32.3	2	9	270	0.00	29.813 
03:45	37.0	37.0	37.0	83	32.3	3	10	270	0.00	29.816 
03:50	37.2	34.1	37.2	82	32.2	4	12	270	0.00	29.816 
03:55	37.2	37.2	37.2	83	32.5	3	6	270	0.00	29.816 
04:00	37.0	37.0	37.0	83	32.3	3	6	270	0.00	29.819 
04:05	37.0	37.0	37.0	84	32.6	3	6	270	0.00	29.819 
04:10	36.9	36.9	36.9	85	32.8	2	7	270	0.00	29.819 
04:15	36.8	36.8	36.8	85	32.7	3	7	292	0.00	29.818 
04:20	36.6	36.6	36.6	86	32.8	3	7	270	0.00	29.818 
04:25	36.6	36.6	36.6	86	32.8	2	4	270	0.00	29.818 
04:30	36.6	36.6	36.6	86	32.8	3	6	270	0.00	29.812 
04:35	36.6	36.6	36.6	86	32.8	3	6	270	0.00	29.812 
04:40	36.6	36.6	36.6	86	32.8	3	7	270	0.00	29.812 
04:45	36.6	36.6	36.6	86	32.8	3	5	270	0.00	29.814 
04:50	36.5	36.5	36.5	86	32.7	3	5	270	0.00	29.814 
04:55	36.5	36.5	36.5	86	32.7	2	5	270	0.00	29.814 
05:00	36.5	36.5	36.5	86	32.7	2	4	270	0.00	29.817 
05:05	36.5	36.5	36.5	86	32.7	2	5	270	0.00	29.817 
05:10	36.5	36.5	36.5	86	32.7	2	6	270	0.00	29.817 
05:15	36.5	36.5	36.5	87	33.0	2	5	270	0.00	29.812 
05:20	36.5	36.5	36.5	87	33.0	3	11	270	0.00	29.812 
05:25	36.3	36.3	36.3	87	32.8	2	5	270	0.00	29.812 
05:30	36.3	36.3	36.3	88	33.1	2	5	248	0.00	29.812 
05:35	36.2	36.2	36.2	88	33.0	2	5	248	0.00	29.812 
05:40	36.2	36.2	36.2	88	33.0	2	4	248	0.00	29.812 
05:45	36.2	36.2	36.2	88	33.0	2	4	248	0.00	29.812 
05:50	36.2	36.2	36.2	88	33.0	2	5	270	0.00	29.812 
05:55	36.2	36.2	36.2	88	33.0	1	3	292	0.00	29.812 
06:00	36.2	36.2	36.2	88	33.0	2	5	270	0.00	29.813 
06:05	36.2	36.2	36.2	88	33.0	2	4	270	0.00	29.813 
06:10	36.2	36.2	36.2	88	33.0	3	5	270	0.00	29.813 
06:15	36.2	36.2	36.2	88	33.0	2	4	270	0.00	29.821 
06:20	36.2	36.2	36.2	89	33.3	1	3	292	0.00	29.821 
06:25	36.2	36.2	36.2	89	33.3	2	5	248	0.00	29.821 
06:30	36.2	36.2	36.2	89	33.3	1	3	270	0.00	29.826 
06:35	36.2	36.2	36.2	89	33.3	1	3	292	0.00	29.826 
06:40	36.2	36.2	36.2	88	33.0	2	4	248	0.00	29.826 
06:45	36.3	36.3	36.3	88	33.1	2	4	248	0.00	29.826 
06:50	36.3	36.3	36.3	88	33.1	2	5	270	0.00	29.826 
06:55	36.3	36.3	36.3	88	33.1	1	3	270	0.00	29.826 
07:00	36.3	36.3	36.3	88	33.1	2	5	248	0.00	29.827 
07:05	36.3	36.3	36.3	88	33.1	2	3	270	0.00	29.827 
07:10	36.5	36.5	36.5	88	33.3	1	3	270	0.00	29.827 
07:15	36.5	36.5	36.5	88	33.3	2	6	248	0.00	29.829 
07:20	36.5	36.5	36.5	88	33.3	1	3	248	0.00	29.829 
07:25	36.5	36.5	36.5	88	33.3	2	4	248	0.00	29.829 
07:30	36.5	36.5	36.5	87	33.0	2	5	270	0.00	29.832 
07:35	36.6	36.6	36.6	87	33.1	2	7	270	0.00	29.832 
07:40	36.6	36.6	36.6	87	33.1	1	3	270	0.00	29.832 
07:45	36.6	36.6	36.6	87	33.1	2	7	292	0.00	29.842 
07:50	36.8	36.8	36.8	86	33.0	2	4	270	0.00	29.842 
07:55	36.8	36.8	36.8	86	33.0	1	3	292	0.00	29.842 
08:00	36.9	36.9	36.9	86	33.1	2	5	270	0.00	29.845 
08:05	36.9	36.9	36.9	85	32.8	1	3	248	0.00	29.845 
08:10	36.9	36.9	36.9	85	32.8	1	3	292	0.00	29.845 
08:15	37.0	37.0	37.0	84	32.6	2	5	292	0.00	29.850 
08:20	37.0	37.0	37.0	84	32.6	1	3	270	0.00	29.850 
08:25	37.0	37.0	37.0	84	32.6	2	5	270	0.00	29.850 
08:30	37.0	37.0	37.0	84	32.6	2	5	292	0.00	29.848 
08:35	37.2	37.2	37.2	84	32.8	2	5	248	0.00	29.848 
08:40	37.2	37.2	37.2	84	32.8	2	4	270	0.00	29.848 
08:45	37.2	37.2	37.2	84	32.8	2	4	270	0.00	29.859 
08:50	37.2	37.2	37.2	84	32.8	1	4	292	0.00	29.859 
08:55	37.2	37.2	37.2	83	32.5	2	5	292	0.00	29.859 
09:00	37.2	37.2	37.2	83	32.5	2	5	315	0.00	29.864 
09:05	37.2	37.2	37.2	84	32.8	2	4	338	0.00	29.864 
09:10	36.9	36.9	36.9	84	32.5	2	5	315	0.00	29.864 
09:15	36.9	36.9	36.9	85	32.8	2	6	292	0.00	29.872 
09:20	36.9	36.9	36.9	85	32.8	2	6	338	0.00	29.872 
09:25	36.8	36.8	36.8	85	32.7	2	6	292	0.00	29.872 
09:30	36.8	36.8	36.8	85	32.7	2	6	315	0.00	29.876 
09:35	36.9	36.9	36.9	84	32.5	2	4	338	0.00	29.876 
09:40	37.0	37.0	37.0	84	32.6	2	4	338	0.00	29.876 
09:45	37.0	37.0	37.0	84	32.6	1	6	338	0.00	29.877 
09:50	37.0	37.0	37.0	84	32.6	2	5	270	0.00	29.877 
09:55	37.0	37.0	37.0	84	32.6	2	5	292	0.00	29.877 
10:00	37.0	37.0	37.0	84	32.6	1	5	315	0.00	29.877 
10:05	37.0	37.0	37.0	84	32.6	2	6	248	0.00	29.877 
10:10	37.2	37.2	37.2	84	32.8	2	5	270	0.00	29.877 
10:15	37.3	37.3	37.3	83	32.6	2	5	292	0.00	29.877 
10:20	37.3	37.3	37.3	83	32.6	2	4	292	0.00	29.877 
10:25	37.3	37.3	37.3	83	32.6	2	4	292	0.00	29.877 
10:30	37.5	37.5	37.5	83	32.8	2	5	292	0.00	29.877 
10:35	37.5	37.5	37.5	83	32.8	2	4	270	0.00	29.877 
10:40	37.5	37.5	37.5	83	32.8	2	7	315	0.00	29.877 
10:45	37.5	37.5	37.5	83	32.8	2	5	315	0.00	29.878 
10:50	37.5	37.5	37.5	82	32.5	2	6	338	0.00	29.878 
10:55	37.5	37.5	37.5	82	32.5	1	4	315	0.00	29.878 
11:00	37.5	37.5	37.5	82	32.5	2	4	292	0.00	29.878 
11:05	37.6	37.6	37.6	83	32.9	2	4	270	0.00	29.878 
11:10	37.5	37.5	37.5	81	32.2	2	5	292	0.00	29.878 
11:15	37.5	37.5	37.5	82	32.5	2	5	315	0.00	29.879 
11:20	37.6	37.6	37.6	81	32.3	2	6	315	0.00	29.879 
11:25	37.6	37.6	37.6	81	32.3	1	4	292	0.00	29.879 
11:30	37.8	37.8	37.8	81	32.5	2	5	292	0.00	29.879 
11:35	37.9	37.9	37.9	80	32.3	3	6	292	0.00	29.879 
11:40	37.9	37.9	37.9	79	32.0	2	5	338	0.00	29.879 
11:45	38.0	38.0	38.0	80	32.4	1	3	315	0.00	29.877 
11:50	38.0	38.0	38.0	79	32.1	3	6	338	0.00	29.877 
11:55	38.2	38.2	38.2	79	32.3	2	7	292	0.00	29.877 
12:00	38.2	38.2	38.2	78	32.0	3	6	315	0.00	29.873 
12:05	38.2	38.2	38.2	78	32.0	2	6	315	0.00	29.873 
12:10	38.0	38.0	38.0	78	31.8	2	6	292	0.00	29.873 
12:15	38.0	38.0	38.0	78	31.8	2	4	292	0.00	29.870 
12:20	37.9	37.9	37.9	80	32.3	2	6	315	0.00	29.870 
12:25	37.6	37.6	37.6	81	32.3	3	5	315	0.00	29.870 
12:30	37.5	37.5	37.5	81	32.2	2	9	270	0.00	29.869 
12:35	37.3	37.3	37.3	81	32.0	3	7	315	0.00	29.869 
12:40	37.3	37.3	37.3	81	32.0	2	6	292	0.00	29.869 
12:45	37.5	37.5	37.5	81	32.2	2	5	270	0.00	29.864 
12:50	37.5	37.5	37.5	79	31.6	3	9	292	0.00	29.864 
12:55	37.3	37.3	37.3	80	31.7	2	6	338	0.00	29.864 
13:00	37.3	37.3	37.3	80	31.7	2	6	338	0.00	29.861 
13:05	37.3	37.3	37.3	80	31.7	2	4	292	0.00	29.861 
13:10	37.3	37.3	37.3	79	31.4	3	6	292	0.00	29.861 
13:15	37.3	37.3	37.3	79	31.4	3	6	270	0.00	29.858 
13:20	37.5	37.5	37.5	79	31.6	2	5	315	0.00	29.858 
13:25	37.8	37.8	37.8	79	31.9	2	5	338	0.00	29.858 
13:30	37.8	37.8	37.8	79	31.9	2	7	0	0.00	29.851 
13:35	37.8	37.8	37.8	78	31.6	3	6	292	0.00	29.851 
13:40	37.8	37.8	37.8	78	31.6	3	8	270	0.00	29.851 
13:45	37.9	37.9	37.9	79	32.0	2	5	0	0.00	29.851 
13:50	38.0	38.0	38.0	77	31.4	2	5	270	0.00	29.851 
13:55	38.2	38.2	38.2	77	31.6	2	6	270	0.00	29.851 
14:00	38.2	38.2	38.2	77	31.6	2	7	315	0.00	29.847 
14:05	38.0	38.0	38.0	79	32.1	2	6	270	0.00	29.847 
14:10	37.8	37.8	37.8	81	32.5	2	7	315	0.00	29.847 
14:15	37.6	37.6	37.6	81	32.3	2	4	315	0.00	29.850 
14:20	37.8	37.8	37.8	80	32.2	2	6	292	0.00	29.850 
14:25	37.8	37.8	37.8	81	32.5	2	5	292	0.00	29.850 
14:30	37.8	37.8	37.8	80	32.2	2	5	338	0.00	29.851 
14:35	37.9	37.9	37.9	80	32.3	1	5	338	0.00	29.851 
14:40	37.6	37.6	37.6	80	32.0	2	6	338	0.00	29.851 
14:45	37.5	37.5	37.5	79	31.6	2	4	315	0.00	29.859 
14:50	37.5	37.5	37.5	81	32.2	1	4	292	0.00	29.859 
14:55	37.3	37.3	37.3	77	30.8	2	6	338	0.00	29.859 
15:00	37.3	37.3	37.3	77	30.8	2	6	292	0.00	29.862 
15:05	37.3	37.3	37.3	77	30.8	2	6	0	0.00	29.862 
15:10	37.3	37.3	37.3	77	30.8	2	5	338	0.00	29.862 
15:15	37.3	37.3	37.3	76	30.4	2	10	292	0.00	29.869 
15:20	37.3	37.3	37.3	76	30.4	2	6	0	0.00	29.869 
15:25	37.2	37.2	37.2	76	30.3	2	6	270	0.00	29.869 
15:30	37.2	37.2	37.2	76	30.3	2	6	338	0.00	29.876 
15:35	37.2	37.2	37.2	76	30.3	2	7	315	0.00	29.876 
15:40	37.2	37.2	37.2	77	30.7	1	4	315	0.00	29.876 
15:45	37.2	37.2	37.2	76	30.3	2	5	0	0.00	29.878 
15:50	37.2	37.2	37.2	77	30.7	1	4	0	0.00	29.878 
15:55	37.2	37.2	37.2	77	30.7	1	3	315	0.00	29.878 
16:00	37.2	37.2	37.2	76	30.3	2	4	315	0.00	29.880 
16:05	37.2	37.2	37.2	76	30.3	1	4	338	0.00	29.880 
16:10	37.2	37.2	37.2	76	30.3	0	2	292	0.00	29.880 
16:15	37.2	37.2	37.2	77	30.7	1	3	338	0.00	29.887 
16:20	37.0	37.0	37.0	77	30.5	1	3	0	0.00	29.887 
16:25	37.0	37.0	37.0	77	30.5	1	3	0	0.00	29.887 
16:30	36.9	36.9	36.9	76	30.1	1	5	22	0.00	29.891 
16:35	36.9	36.9	36.9	76	30.1	1	6	22	0.00	29.891 
16:40	36.9	36.9	36.9	76	30.1	1	3	338	0.00	29.891 
16:45	36.9	36.9	36.9	76	30.1	2	5	338	0.00	29.894 
16:50	36.8	36.8	36.8	76	30.0	1	6	270	0.00	29.894 
16:55	36.8	36.8	36.8	76	30.0	1	3	338	0.00	29.894 
17:00	36.8	36.8	36.8	75	29.6	1	6	338	0.00	29.898 
17:05	36.6	36.6	36.6	75	29.4	1	5	338	0.00	29.898 
17:10	36.6	36.6	36.6	76	29.8	1	5	270	0.00	29.898 
17:15	36.6	36.6	36.6	76	29.8	1	4	315	0.00	29.904 
17:20	36.6	36.6	36.6	76	29.8	1	4	0	0.00	29.904 
17:25	36.5	36.5	36.5	76	29.7	1	3	0	0.00	29.904 
17:30	36.5	36.5	36.5	75	29.3	2	4	315	0.00	29.910 
17:35	36.5	36.5	36.5	75	29.3	1	5	292	0.00	29.910 
17:40	36.5	36.5	36.5	76	29.7	1	6	315	0.00	29.910 
17:45	36.5	36.5	36.5	75	29.3	2	7	315	0.00	29.912 
17:50	36.3	36.3	36.3	76	29.5	2	5	292	0.00	29.912 
17:55	36.3	36.3	36.3	77	29.8	1	4	338	0.00	29.912 
18:00	36.3	36.3	36.3	76	29.5	1	4	338	0.00	29.917 
18:05	36.2	36.2	36.2	76	29.4	1	5	270	0.00	29.917 
18:10	36.2	36.2	36.2	76	29.4	2	6	292	0.00	29.917 
18:15	36.2	36.2	36.2	77	29.7	3	7	270	0.00	29.925 
18:20	35.9	35.9	35.9	77	29.4	3	9	315	0.00	29.925 
18:25	35.6	35.6	35.6	78	29.4	3	7	338	0.00	29.925 
18:30	35.5	35.5	35.5	79	29.6	3	7	292	0.00	29.926 
18:35	35.3	35.3	35.3	80	29.8	2	9	338	0.00	29.926 
18:40	35.2	35.2	35.2	80	29.7	2	6	0	0.00	29.926 
18:45	35.0	35.0	35.0	80	29.5	2	5	0	0.00	29.930 
18:50	34.9	34.9	34.9	80	29.4	2	7	0	0.00	29.930 
18:55	34.9	34.9	34.9	80	29.4	2	5	0	0.00	29.930 
19:00	34.9	34.9	34.9	79	29.1	2	6	338	0.00	29.935 
19:05	34.9	34.9	34.9	79	29.1	2	6	292	0.00	29.935 
19:10	34.7	34.7	34.7	79	28.9	2	5	292	0.00	29.935 
19:15	34.7	34.7	34.7	79	28.9	2	5	292	0.00	29.938 
19:20	34.7	34.7	34.7	79	28.9	1	4	338	0.00	29.938 
19:25	34.7	34.7	34.7	79	28.9	2	5	315	0.00	29.938 
19:30	34.7	34.7	34.7	78	28.6	2	5	315	0.00	29.942 
19:35	34.7	34.7	34.7	78	28.6	2	5	338	0.00	29.942 
19:40	34.7	34.7	34.7	79	28.9	1	5	270	0.00	29.942 
19:45	34.7	34.7	34.7	78	28.6	1	5	338	0.00	29.944 
19:50	34.7	34.7	34.7	77	28.2	2	6	338	0.00	29.944 
19:55	34.6	34.6	34.6	78	28.5	2	6	0	0.00	29.944 
20:00	34.6	34.6	34.6	78	28.5	2	5	338	0.00	29.945 
20:05	34.4	34.4	34.4	78	28.3	2	4	292	0.00	29.945 
20:10	34.3	34.3	34.3	78	28.2	1	3	315	0.00	29.945 
20:15	34.3	34.3	34.3	78	28.2	1	4	315	0.00	29.951 
20:20	34.1	34.1	34.1	78	28.0	2	4	338	0.00	29.951 
20:25	34.0	34.0	34.0	78	27.9	2	4	292	0.00	29.951 
20:30	33.8	33.8	33.8	78	27.7	1	3	315	0.00	29.957 
20:35	33.8	33.8	33.8	77	27.4	2	6	338	0.00	29.957 
20:40	33.7	33.7	33.7	77	27.3	2	7	315	0.00	29.957 
20:45	33.7	33.7	33.7	76	27.0	2	6	292	0.00	29.954 
20:50	33.5	33.5	33.5	76	26.8	2	6	0	0.00	29.954 
20:55	33.5	33.5	33.5	75	26.4	1	4	338	0.00	29.954 
21:00	33.4	33.4	33.4	75	26.3	2	6	338	0.00	29.959 
21:05	33.4	33.4	33.4	75	26.3	2	5	315	0.00	29.959 
21:10	33.2	33.2	33.2	74	25.8	2	6	292	0.00	29.959 
21:15	33.2	33.2	33.2	74	25.8	2	4	315	0.00	29.961 
21:20	33.1	33.1	33.1	75	26.1	1	4	338	0.00	29.961 
21:25	33.1	33.1	33.1	74	25.7	1	4	22	0.00	29.961 
21:30	32.9	32.9	32.9	73	25.2	2	4	270	0.00	29.964 
21:35	32.8	32.8	32.8	72	24.8	2	8	315	0.00	29.964 
21:40	32.7	32.7	32.7	72	24.7	1	4	292	0.00	29.964 
21:45	32.5	32.5	32.5	70	23.8	2	4	338	0.00	29.969 
21:50	32.5	32.5	32.5	69	23.5	1	5	315	0.00	29.969 
21:55	32.4	32.4	32.4	69	23.4	2	6	338	0.00	29.969 
22:00	32.4	32.4	32.4	69	23.4	1	4	0	0.00	29.978 
22:05	32.4	32.4	32.4	70	23.7	1	3	0	0.00	29.978 
22:10	32.2	32.2	32.2	69	23.2	2	12	0	0.00	29.978 
22:15	32.1	32.1	32.1	69	23.1	1	4	338	0.00	29.978 
22:20	31.9	31.9	31.9	69	22.9	2	6	338	0.00	29.978 
22:25	31.9	31.9	31.9	68	22.6	2	6	0	0.00	29.978 
22:30	31.8	31.8	31.8	70	23.2	1	3	338	0.00	29.979 
22:35	31.6	31.6	31.6	69	22.6	2	5	0	0.00	29.979 
22:40	31.6	31.6	31.6	69	22.6	1	4	338	0.00	29.979 
22:45	31.5	31.5	31.5	69	22.5	1	4	0	0.00	29.985 
22:50	31.3	31.3	31.3	70	22.7	1	3	0	0.00	29.985 
22:55	31.3	31.3	31.3	69	22.3	2	4	22	0.00	29.985 
23:00	31.2	31.2	31.2	69	22.2	1	4	0	0.00	29.987 
23:05	31.2	31.2	31.2	70	22.6	1	4	22	0.00	29.987 
23:10	31.2	31.2	31.2	68	21.9	1	4	0	0.00	29.987 
23:15	31.0	31.0	31.0	69	22.0	0	2	0	0.00	29.987 
23:20	31.0	31.0	31.0	69	22.0	1	5	0	0.00	29.987 
23:25	31.0	31.0	31.0	69	22.0	1	4	338	0.00	29.987 
23:30	30.9	30.9	30.9	69	21.9	2	5	338	0.00	29.986 
23:35	30.9	30.9	30.9	69	21.9	1	4	0	0.00	29.986 
23:40	30.9	30.9	30.9	69	21.9	2	7	22	0.00	29.986 
23:45	30.7	30.7	30.7	69	21.8	1	3	22	0.00	29.984 
23:50	30.7	30.7	30.7	68	21.4	1	3	22	0.00	29.984 
23:55	30.7	30.7	30.7	69	21.8	1	5	22	0.00	29.984 

CoCoRaHS
IN-AL-39
A2 Web Hosting
Creative Commons License
GoDaddy
Look for:

loaded 2017-10-17 09:42:45 • last modified 2010-11-18 10:43:29
Privacy PolicyDisclaimer
• wx.awcolley.com is powered by PmWiki v.2002016 •
• all content (unless otherwise noted) © 2017 A W Colley